Time;durP1;ratioP1;P1;durP2;ratioP2;P2;SDS_P1;SDS_P2;PMS_P1;PMS_P2;Temp;Humidity;BMP_temperature;BMP_pressure;BME280_temperature;BME280_humidity;BME280_pressure;Samples;Min_cycle;Max_cycle;Signal;HPM_P1;HPM_P2
2023/09/25 00:22:31;;;;;;;3.38;0.82;;;;;;;19.84;42.89;101892.47;4965477;28;20049;-62
2023/09/25 00:24:57;;;;;;;3.08;1.15;;;;;;;19.85;42.65;101899.59;4992387;28;20039;-62
2023/09/25 00:27:23;;;;;;;4.88;1.05;;;;;;;19.83;42.87;101896.22;4991950;28;20041;-62
2023/09/25 00:29:49;;;;;;;11.95;1.33;;;;;;;19.83;42.94;101896.22;5000559;28;20037;-62
2023/09/25 00:32:15;;;;;;;4.80;1.20;;;;;;;19.82;43.28;101899.09;5011687;28;20382;-62
2023/09/25 00:34:40;;;;;;;0.95;0.80;;;;;;;19.81;42.99;101903.69;5012028;28;20030;-62
2023/09/25 00:37:05;;;;;;;1.83;0.90;;;;;;;19.80;42.97;101896.53;4995536;28;20386;-63
2023/09/25 00:39:31;;;;;;;4.47;1.45;;;;;;;19.79;42.75;101894.00;5011636;28;20048;-62
2023/09/25 00:41:56;;;;;;;4.15;1.05;;;;;;;19.76;43.13;101897.88;5011766;28;20033;-62
2023/09/25 00:44:22;;;;;;;2.65;1.38;;;;;;;19.73;42.90;101907.22;5012842;28;20549;-63
2023/09/25 00:46:48;;;;;;;1.08;0.80;;;;;;;19.70;43.07;101910.25;4992179;28;20042;-62
2023/09/25 00:49:14;;;;;;;2.83;0.93;;;;;;;19.64;43.37;101901.88;5009162;28;20029;-62
2023/09/25 00:51:42;;;;;;;3.30;1.02;;;;;;;19.63;42.88;101894.75;5012945;28;20030;-62
2023/09/25 00:54:07;;;;;;;2.15;0.70;;;;;;;19.57;43.23;101898.13;5011922;28;20042;-62
2023/09/25 00:56:33;;;;;;;2.30;0.75;;;;;;;19.57;43.21;101900.84;4995422;28;20448;-62
2023/09/25 00:58:58;;;;;;;2.47;1.25;;;;;;;19.53;43.29;101899.44;4998887;28;20084;-62
2023/09/25 01:01:24;;;;;;;1.23;1.08;;;;;;;19.50;42.75;101905.22;5015743;28;20034;-62
2023/09/25 01:03:49;;;;;;;2.97;0.98;;;;;;;19.49;43.06;101898.06;5016590;28;20034;-62
2023/09/25 01:06:15;;;;;;;1.48;0.82;;;;;;;19.50;43.41;101905.22;5015216;28;20044;-62
2023/09/25 01:08:41;;;;;;;1.92;0.70;;;;;;;19.47;43.04;101900.09;4999078;28;20030;-62
2023/09/25 01:11:08;;;;;;;3.78;0.82;;;;;;;19.48;43.20;101904.53;5015094;28;20049;-61
2023/09/25 01:13:34;;;;;;;2.13;1.27;;;;;;;19.46;42.65;101898.38;5015275;28;20030;-63
2023/09/25 01:15:59;;;;;;;3.50;1.63;;;;;;;19.42;43.15;101900.59;4999329;28;20037;-62
2023/09/25 01:18:25;;;;;;;3.72;0.90;;;;;;;19.40;43.33;101904.47;5015354;28;20113;-62
2023/09/25 01:20:50;;;;;;;1.77;1.00;;;;;;;19.36;43.07;101908.47;5016008;28;20030;-61
2023/09/25 01:23:16;;;;;;;2.38;0.63;;;;;;;19.34;43.00;101911.38;5014734;28;20045;-62
2023/09/25 01:25:41;;;;;;;2.42;1.38;;;;;;;19.29;42.95;101897.38;5015889;28;20115;-62
2023/09/25 01:28:08;;;;;;;2.33;1.05;;;;;;;19.28;43.20;101905.72;5016277;28;20041;-62
2023/09/25 01:30:34;;;;;;;1.70;0.98;;;;;;;19.25;43.01;101895.16;5014901;28;20047;-61
2023/09/25 01:33:00;;;;;;;1.63;1.10;;;;;;;19.21;43.34;101891.06;5014952;28;20026;-62
2023/09/25 01:35:26;;;;;;;3.28;1.50;;;;;;;19.19;42.93;101892.06;5014660;28;20538;-62
2023/09/25 01:37:59;;;;;;;4.97;1.48;;;;;;;19.18;43.62;101890.34;5015945;28;20045;-62
2023/09/25 01:40:25;;;;;;;2.17;1.15;;;;;;;19.19;43.49;101892.06;4997534;28;20532;-62
2023/09/25 01:42:50;;;;;;;2.17;1.00;;;;;;;19.19;42.84;101889.34;5015975;28;20033;-61
2023/09/25 01:45:17;;;;;;;1.35;1.13;;;;;;;19.21;43.53;101889.19;4998355;28;20069;-61
2023/09/25 01:47:49;;;;;;;2.92;0.80;;;;;;;19.23;43.48;101897.19;5014500;28;20101;-61
2023/09/25 01:50:19;;;;;;;1.75;0.90;;;;;;;19.22;43.11;101896.34;5014788;28;20028;-61
2023/09/25 01:52:47;;;;;;;2.42;1.10;;;;;;;19.22;43.45;101895.47;4998125;28;20033;-62
2023/09/25 01:55:13;;;;;;;3.20;1.13;;;;;;;19.20;43.23;101903.78;5014491;28;20038;-61
2023/09/25 01:57:38;;;;;;;2.33;1.13;;;;;;;19.19;43.13;101897.50;5014286;28;20033;-62
2023/09/25 02:00:09;;;;;;;2.00;0.88;;;;;;;19.21;43.42;101893.78;4997928;28;20044;-62
2023/09/25 02:02:38;;;;;;;1.50;1.08;;;;;;;19.20;43.04;101892.94;5015751;28;20116;-61
2023/09/25 02:05:04;;;;;;;1.17;0.70;;;;;;;19.21;43.94;101899.22;5014268;28;20029;-61
2023/09/25 02:07:29;;;;;;;1.08;0.73;;;;;;;19.20;43.77;101898.38;4998129;28;20108;-61
2023/09/25 02:09:55;;;;;;;2.20;1.13;;;;;;;19.22;42.95;101901.75;5013179;28;20041;-62
2023/09/25 02:12:21;;;;;;;1.17;0.98;;;;;;;19.22;43.08;101900.91;5015306;28;20034;-63
2023/09/25 02:14:47;;;;;;;5.00;1.60;;;;;;;19.19;43.04;101896.66;5014140;28;20502;-62
2023/09/25 02:17:12;;;;;;;4.75;0.80;;;;;;;19.17;43.51;101894.09;4997624;28;20034;-62
2023/09/25 02:19:38;;;;;;;3.40;1.00;;;;;;;19.14;43.15;101894.41;5014012;28;20509;-62
2023/09/25 02:22:06;;;;;;;1.50;0.90;;;;;;;19.11;43.31;101891.16;5014882;28;20391;-62
2023/09/25 02:24:33;;;;;;;3.15;1.13;;;;;;;19.09;44.00;101891.34;5013828;28;20034;-62
2023/09/25 02:26:58;;;;;;;1.92;1.42;;;;;;;19.05;42.96;101897.22;5013667;28;20037;-62
2023/09/25 02:29:24;;;;;;;1.77;1.08;;;;;;;19.03;43.70;101897.38;5014996;28;20029;-62
2023/09/25 02:31:50;;;;;;;2.15;0.88;;;;;;;19.01;43.67;101902.09;5013636;28;20108;-62
2023/09/25 02:34:16;;;;;;;5.15;1.30;;;;;;;18.97;43.59;101898.00;5015041;28;20034;-62
2023/09/25 02:36:42;;;;;;;4.70;0.90;;;;;;;18.94;43.74;101898.31;5013777;28;20037;-62
2023/09/25 02:39:08;;;;;;;4.05;0.90;;;;;;;18.94;43.38;101892.91;5013211;28;20107;-59
2023/09/25 02:41:34;;;;;;;8.45;0.95;;;;;;;18.90;43.50;101896.91;5014001;28;20037;-60
2023/09/25 02:43:59;;;;;;;4.75;1.23;;;;;;;18.89;42.92;101884.38;5013460;28;20034;-59
2023/09/25 02:46:24;;;;;;;3.22;1.13;;;;;;;18.86;43.58;101890.13;4996932;28;20438;-60
2023/09/25 02:48:50;;;;;;;2.38;1.20;;;;;;;18.88;43.35;101893.53;5013558;28;20034;-59
2023/09/25 02:51:15;;;;;;;2.22;1.08;;;;;;;18.89;43.86;101899.81;5013447;28;20030;-60
2023/09/25 02:53:40;;;;;;;2.30;1.13;;;;;;;18.86;43.48;101900.97;5013413;28;20512;-60
2023/09/25 02:56:06;;;;;;;1.88;0.82;;;;;;;18.86;43.53;101898.25;5013243;28;20409;-60
2023/09/25 02:58:31;;;;;;;2.42;1.10;;;;;;;18.84;43.44;101900.28;5013430;28;20046;-61
2023/09/25 03:00:58;;;;;;;2.08;0.95;;;;;;;18.83;43.61;101901.28;5015199;28;20512;-60
2023/09/25 03:03:24;;;;;;;1.00;0.77;;;;;;;18.80;43.64;101901.59;4996913;28;20045;-59
2023/09/25 03:05:49;;;;;;;1.63;1.00;;;;;;;18.80;43.44;101909.75;5014342;28;20390;-59
2023/09/25 03:08:15;;;;;;;3.38;1.20;;;;;;;18.79;43.87;101905.31;5013896;28;20041;-59
2023/09/25 03:10:40;;;;;;;1.63;0.90;;;;;;;18.75;43.38;101897.66;5013996;28;20029;-60
2023/09/25 03:13:05;;;;;;;3.88;0.90;;;;;;;18.73;43.93;101911.38;5014174;28;20515;-60
2023/09/25 03:15:31;;;;;;;4.10;1.08;;;;;;;18.69;43.16;101906.41;5013070;28;20033;-59
2023/09/25 03:17:56;;;;;;;1.38;0.75;;;;;;;18.63;43.29;101909.72;5014140;28;20042;-59
2023/09/25 03:20:23;;;;;;;0.90;0.77;;;;;;;18.57;43.98;101920.22;5012615;28;20557;-60
2023/09/25 03:22:49;;;;;;;3.90;0.88;;;;;;;18.53;43.71;101915.25;5012556;28;20383;-60
2023/09/25 03:25:14;;;;;;;1.20;1.08;;;;;;;18.48;44.10;101912.97;5014004;28;20100;-59
2023/09/25 03:27:40;;;;;;;2.65;0.70;;;;;;;18.42;43.31;101919.03;5013943;28;20061;-59
2023/09/25 03:30:06;;;;;;;1.33;0.98;;;;;;;18.37;43.84;101917.78;5012381;28;20417;-60
2023/09/25 03:32:32;;;;;;;2.38;0.90;;;;;;;18.32;43.12;101912.78;5012630;28;20030;-59
2023/09/25 03:34:58;;;;;;;4.50;1.10;;;;;;;18.29;44.17;101917.66;5012285;28;20049;-59
2023/09/25 03:37:23;;;;;;;1.15;0.98;;;;;;;18.25;44.18;101921.69;5013722;28;20034;-59
2023/09/25 03:39:48;;;;;;;1.52;0.82;;;;;;;18.22;44.38;101916.56;5029035;28;20383;-60
2023/09/25 03:42:14;;;;;;;2.60;1.05;;;;;;;18.19;43.63;101919.59;4995859;28;20037;-60
2023/09/25 03:44:39;;;;;;;2.33;0.80;;;;;;;18.16;43.77;101911.75;4996087;28;20038;-59
2023/09/25 03:47:05;;;;;;;0.73;0.70;;;;;;;18.13;44.12;101917.47;5012704;28;20091;-59
2023/09/25 03:49:30;;;;;;;1.98;1.50;;;;;;;18.09;43.90;101918.78;5013893;28;20041;-60
2023/09/25 03:51:55;;;;;;;1.40;0.77;;;;;;;18.04;44.06;101914.66;4995904;28;20033;-60
2023/09/25 03:54:21;;;;;;;2.78;1.00;;;;;;;18.00;44.73;101913.28;4996069;28;20054;-59
2023/09/25 03:56:46;;;;;;;3.92;1.10;;;;;;;17.95;43.60;101915.56;5013623;28;20057;-60
2023/09/25 03:59:11;;;;;;;1.23;0.75;;;;;;;17.96;44.68;101914.56;4996125;28;20045;-59
2023/09/25 04:01:37;;;;;;;3.63;1.65;;;;;;;17.92;44.14;101915.84;4996130;28;20030;-60
2023/09/25 04:04:02;;;;;;;1.80;1.00;;;;;;;17.92;44.55;101910.44;5012425;28;20034;-59
2023/09/25 04:06:28;;;;;;;1.98;1.00;;;;;;;17.89;44.35;101913.47;4995767;28;20030;-59
2023/09/25 04:08:53;;;;;;;2.10;1.02;;;;;;;17.87;44.66;101906.47;4995693;28;20044;-59
2023/09/25 04:11:18;;;;;;;1.83;1.05;;;;;;;17.85;43.87;101916.63;5012086;28;20105;-60
2023/09/25 04:13:44;;;;;;;3.85;0.73;;;;;;;17.78;44.73;101905.50;5013326;28;20116;-60
2023/09/25 04:16:13;;;;;;;2.75;1.08;;;;;;;17.82;45.03;101915.06;5013314;28;20058;-59
2023/09/25 04:18:42;;;;;;;2.13;1.15;;;;;;;17.80;44.97;101916.22;5013538;28;20041;-60
2023/09/25 04:21:11;;;;;;;1.63;0.82;;;;;;;17.79;44.08;101914.50;5012089;28;20053;-60
2023/09/25 04:23:36;;;;;;;1.45;0.73;;;;;;;17.74;44.96;101912.25;5011679;28;20054;-59
2023/09/25 04:26:03;;;;;;;1.65;1.35;;;;;;;17.73;44.32;101909.66;5012565;28;20070;-60
2023/09/25 04:28:29;;;;;;;2.10;1.00;;;;;;;17.72;44.91;101919.69;5012780;28;20037;-59
2023/09/25 04:30:57;;;;;;;3.78;1.48;;;;;;;17.68;45.01;101915.53;5012637;28;20149;-59
2023/09/25 04:33:23;;;;;;;2.90;1.10;;;;;;;17.68;45.22;101922.81;5021570;28;20034;-60
2023/09/25 04:35:49;;;;;;;2.42;1.02;;;;;;;17.66;44.28;101925.69;5028096;28;20054;-60
2023/09/25 04:38:14;;;;;;;1.30;0.70;;;;;;;17.65;44.42;101926.69;5027413;28;20057;-60
2023/09/25 04:40:42;;;;;;;3.30;1.10;;;;;;;17.64;44.61;101927.69;5011047;28;20041;-60
2023/09/25 04:43:07;;;;;;;4.18;1.00;;;;;;;17.63;44.17;101925.97;5025788;28;20034;-62
2023/09/25 04:45:33;;;;;;;2.17;1.48;;;;;;;17.63;45.58;101925.13;5022286;28;20052;-59
2023/09/25 04:47:59;;;;;;;1.33;1.17;;;;;;;17.61;45.15;101922.56;5017710;28;20494;-59
2023/09/25 04:50:24;;;;;;;1.50;0.98;;;;;;;17.62;44.64;101915.28;5016217;28;20034;-59
2023/09/25 04:52:50;;;;;;;2.88;1.33;;;;;;;17.62;45.80;101928.81;5017108;28;20120;-60
2023/09/25 04:55:15;;;;;;;2.20;1.17;;;;;;;17.61;45.87;101928.00;5016894;28;20520;-60
2023/09/25 04:57:43;;;;;;;0.95;0.73;;;;;;;17.59;44.60;101924.56;5017280;28;20046;-62
2023/09/25 05:00:17;;;;;;;1.92;1.33;;;;;;;17.58;44.62;101925.56;5016718;28;20124;-62
2023/09/25 05:02:44;;;;;;;2.00;1.33;;;;;;;17.56;45.33;101921.31;5015710;28;20606;-61
2023/09/25 05:05:10;;;;;;;1.05;0.80;;;;;;;17.56;44.89;101924.03;5015412;28;20041;-61
2023/09/25 05:07:35;;;;;;;1.98;0.70;;;;;;;17.53;45.47;101919.72;4999128;28;20034;-62
2023/09/25 05:10:01;;;;;;;2.20;0.80;;;;;;;17.54;45.57;101920.59;5016820;28;20034;-61
2023/09/25 05:12:26;;;;;;;1.63;1.20;;;;;;;17.54;45.04;101920.59;5016813;28;20037;-62
2023/09/25 05:14:52;;;;;;;1.55;0.98;;;;;;;17.54;45.19;101932.28;5016829;28;20141;-61
2023/09/25 05:17:17;;;;;;;1.83;1.02;;;;;;;17.56;44.96;101929.44;5016714;28;20034;-62
2023/09/25 05:19:43;;;;;;;3.33;1.20;;;;;;;17.56;45.36;101930.28;5015432;28;20036;-61
2023/09/25 05:22:09;;;;;;;3.70;0.95;;;;;;;17.56;44.92;101932.97;5016853;28;20041;-61
2023/09/25 05:24:34;;;;;;;2.67;1.27;;;;;;;17.57;45.68;101932.00;5015109;28;20081;-62
2023/09/25 05:27:00;;;;;;;1.27;0.80;;;;;;;17.56;45.27;101932.97;5015486;28;20058;-62
2023/09/25 05:29:25;;;;;;;1.25;0.90;;;;;;;17.56;44.62;101932.97;5016316;28;20033;-62
2023/09/25 05:31:51;;;;;;;3.08;1.27;;;;;;;17.54;44.76;101926.88;4997654;28;20049;-62
2023/09/25 05:34:16;;;;;;;2.92;1.30;;;;;;;17.57;44.89;101925.72;5008376;28;20038;-62
2023/09/25 05:36:41;;;;;;;2.42;1.33;;;;;;;17.57;44.41;101937.41;5016135;28;20564;-62
2023/09/25 05:39:08;;;;;;;1.50;0.80;;;;;;;17.58;45.36;101936.41;5017238;28;20041;-62
2023/09/25 05:41:33;;;;;;;3.05;1.20;;;;;;;17.60;46.15;101942.53;5014339;28;20497;-61
2023/09/25 05:43:59;;;;;;;3.22;1.30;;;;;;;17.63;45.19;101942.25;5015596;28;20041;-61
2023/09/25 05:46:25;;;;;;;2.65;1.33;;;;;;;17.65;45.36;101934.81;5016021;28;20057;-62
2023/09/25 05:48:53;;;;;;;3.88;1.30;;;;;;;17.67;46.33;101938.22;5015845;28;20441;-62
2023/09/25 05:51:19;;;;;;;1.52;1.00;;;;;;;17.70;45.93;101937.94;5014855;28;20038;-61
2023/09/25 05:53:44;;;;;;;2.35;1.13;;;;;;;17.75;45.41;101941.06;5016640;28;20030;-62
2023/09/25 05:56:09;;;;;;;1.65;1.00;;;;;;;17.80;45.81;101944.19;5016022;28;20046;-62
2023/09/25 05:58:35;;;;;;;3.90;1.25;;;;;;;17.85;44.67;101935.59;5015640;28;20038;-62
2023/09/25 06:01:01;;;;;;;3.00;1.50;;;;;;;17.92;45.15;101937.53;5015748;28;20057;-61
2023/09/25 06:03:27;;;;;;;2.47;1.45;;;;;;;17.98;46.14;101941.50;5015843;28;20030;-61
2023/09/25 06:05:52;;;;;;;7.40;1.33;;;;;;;18.04;45.03;101947.19;5017095;28;20536;-66
2023/09/25 06:08:17;;;;;;;1.27;1.05;;;;;;;18.16;45.19;101949.72;5016195;28;20073;-61
2023/09/25 06:10:44;;;;;;;3.85;1.45;;;;;;;18.24;45.90;101941.66;5016142;28;20498;-62
2023/09/25 06:13:09;;;;;;;3.00;1.30;;;;;;;18.36;44.64;101948.59;5015588;28;20061;-61
2023/09/25 06:15:37;;;;;;;3.35;1.65;;;;;;;18.48;45.03;101944.72;5015477;28;20030;-62
2023/09/25 06:18:07;;;;;;;2.65;1.25;;;;;;;18.72;44.97;101950.38;5015736;28;20029;-63
2023/09/25 06:20:36;;;;;;;5.93;1.67;;;;;;;18.90;44.64;101956.66;5015256;28;20073;-66
2023/09/25 06:23:02;;;;;;;3.55;1.10;;;;;;;19.04;44.89;101960.69;5015048;28;20049;-64
2023/09/25 06:25:29;;;;;;;2.15;1.55;;;;;;;19.12;45.05;101958.88;5014867;28;20045;-63
2023/09/25 06:27:55;;;;;;;4.40;1.50;;;;;;;19.23;44.86;101951.53;5014942;28;20049;-63
2023/09/25 06:30:20;;;;;;;2.08;1.08;;;;;;;19.34;45.03;101954.00;5012710;28;20022;-63
2023/09/25 06:32:46;;;;;;;3.47;1.40;;;;;;;19.42;44.81;101962.22;5015099;28;20148;-64
2023/09/25 06:35:12;;;;;;;2.17;1.13;;;;;;;19.49;45.13;101956.00;5015135;28;20116;-63
2023/09/25 06:37:38;;;;;;;2.25;1.20;;;;;;;19.64;45.14;101961.69;5014091;28;20076;-63
2023/09/25 06:40:09;;;;;;;1.85;1.10;;;;;;;19.77;44.88;101956.66;5015258;28;20034;-63
2023/09/25 06:42:34;;;;;;;5.07;1.67;;;;;;;19.84;44.62;101948.72;5014906;28;20041;-63
2023/09/25 06:45:00;;;;;;;2.17;1.30;;;;;;;19.95;44.43;101948.44;5015154;28;20061;-64
2023/09/25 06:47:25;;;;;;;3.92;1.40;;;;;;;20.04;44.61;101947.47;5014826;28;20034;-64
2023/09/25 06:49:51;;;;;;;3.38;1.17;;;;;;;20.23;44.46;101953.50;5014836;28;20048;-63
2023/09/25 06:52:16;;;;;;;2.42;1.10;;;;;;;20.29;44.53;101952.03;5014721;28;20084;-63
2023/09/25 06:54:41;;;;;;;3.40;1.60;;;;;;;20.40;44.45;101948.16;5014070;28;20088;-63
2023/09/25 06:57:07;;;;;;;3.97;1.45;;;;;;;20.54;44.02;101944.78;5014541;28;20025;-63
2023/09/25 06:59:34;;;;;;;5.75;1.75;;;;;;;20.65;44.40;101958.09;5014626;28;20445;-63
2023/09/25 07:02:00;;;;;;;3.38;1.40;;;;;;;20.74;44.42;101963.38;5014934;28;20029;-63
2023/09/25 07:04:26;;;;;;;3.10;1.23;;;;;;;20.93;44.15;101959.50;5014467;28;20026;-63
2023/09/25 07:06:52;;;;;;;5.72;1.58;;;;;;;21.17;43.36;101943.19;5014641;28;20036;-63
2023/09/25 07:09:17;;;;;;;2.92;1.65;;;;;;;21.39;43.34;101955.25;5014385;28;20042;-63
2023/09/25 07:11:43;;;;;;;2.47;1.35;;;;;;;21.68;43.68;101941.06;5014483;28;20113;-62
2023/09/25 07:14:08;;;;;;;2.40;1.15;;;;;;;21.98;42.94;101945.78;5012990;28;20040;-63
2023/09/25 07:16:35;;;;;;;2.95;1.63;;;;;;;22.11;42.87;101948.78;5014189;28;20061;-64
2023/09/25 07:19:00;;;;;;;2.78;1.10;;;;;;;22.26;43.57;101947.03;5014197;28;20034;-58
2023/09/25 07:21:26;;;;;;;3.13;1.35;;;;;;;22.44;43.04;101952.22;5014366;28;20114;-59
2023/09/25 07:23:51;;;;;;;4.53;1.75;;;;;;;22.69;42.71;101951.09;5014067;28;20044;-59
2023/09/25 07:26:17;;;;;;;3.67;1.50;;;;;;;22.91;41.98;101949.38;5014218;28;20137;-59
2023/09/25 07:28:45;;;;;;;3.50;1.38;;;;;;;23.10;41.84;101944.28;5013976;28;20088;-59
2023/09/25 07:31:11;;;;;;;3.45;1.25;;;;;;;23.26;41.51;101951.47;5012660;28;20026;-59
2023/09/25 07:33:36;;;;;;;4.30;1.55;;;;;;;23.48;41.39;101949.78;5013937;28;20045;-59
2023/09/25 07:36:03;;;;;;;4.90;1.30;;;;;;;23.66;41.75;101942.91;5014027;28;20030;-60
2023/09/25 07:38:29;;;;;;;5.78;1.73;;;;;;;23.82;41.64;101951.97;5014304;28;20164;-60
2023/09/25 07:40:54;;;;;;;2.50;1.15;;;;;;;24.01;41.85;101948.69;5012725;28;20497;-59
2023/09/25 07:43:20;;;;;;;3.03;1.23;;;;;;;24.28;41.29;101953.50;5012229;28;20586;-59
2023/09/25 07:45:48;;;;;;;5.60;2.30;;;;;;;24.36;41.18;101945.19;5013653;28;20039;-60
2023/09/25 07:48:14;;;;;;;2.72;1.40;;;;;;;24.38;41.38;101943.09;5012371;28;20058;-59
2023/09/25 07:50:40;;;;;;;3.50;1.20;;;;;;;24.57;41.02;101953.44;5013840;28;20030;-59
2023/09/25 07:53:07;;;;;;;5.03;1.48;;;;;;;24.70;40.38;101939.88;5013498;28;20065;-59
2023/09/25 07:55:32;;;;;;;4.45;1.70;;;;;;;24.79;40.61;101946.94;5013881;28;20030;-60
2023/09/25 07:57:59;;;;;;;3.03;1.15;;;;;;;24.94;40.46;101943.31;5012099;28;20441;-59
2023/09/25 08:00:24;;;;;;;5.07;1.48;;;;;;;25.05;40.46;101948.25;5013306;28;20497;-60
2023/09/25 08:02:51;;;;;;;1.58;1.25;;;;;;;25.19;39.70;101948.19;5013373;28;20080;-59
2023/09/25 08:05:22;;;;;;;3.47;1.50;;;;;;;25.34;39.49;101946.22;5013385;28;20401;-61
2023/09/25 08:07:48;;;;;;;4.60;1.63;;;;;;;25.42;40.16;101945.22;5012389;28;20033;-59
2023/09/25 08:10:14;;;;;;;3.00;1.45;;;;;;;25.58;39.46;101958.69;5013412;28;20041;-59
2023/09/25 08:12:40;;;;;;;3.55;1.60;;;;;;;25.72;39.54;101943.13;5013262;28;20401;-59
2023/09/25 08:15:06;;;;;;;2.17;1.33;;;;;;;25.70;39.50;101946.09;5011825;28;20052;-60
2023/09/25 08:17:32;;;;;;;1.52;1.42;;;;;;;25.78;39.12;101940.44;5013242;28;20080;-59
2023/09/25 08:19:58;;;;;;;4.97;1.30;;;;;;;25.91;38.89;101940.53;5013191;28;20418;-60
2023/09/25 08:22:24;;;;;;;2.13;1.25;;;;;;;26.10;39.03;101943.59;5011715;28;20030;-60
2023/09/25 08:24:49;;;;;;;2.58;1.52;;;;;;;26.20;38.64;101942.19;5012519;28;20042;-59
2023/09/25 08:27:15;;;;;;;2.78;1.23;;;;;;;26.29;38.47;101940.13;5012981;28;20129;-64
2023/09/25 08:29:40;;;;;;;3.38;1.35;;;;;;;26.48;38.25;101936.59;5012857;28;20109;-64
2023/09/25 08:32:08;;;;;;;2.67;1.10;;;;;;;26.73;38.25;101940.47;5012959;28;20033;-64
2023/09/25 08:34:34;;;;;;;2.58;1.25;;;;;;;26.82;38.71;101942.00;5012956;28;20038;-64
2023/09/25 08:36:59;;;;;;;3.30;1.55;;;;;;;26.94;38.50;101940.31;5011316;28;20022;-64
2023/09/25 08:39:24;;;;;;;4.65;1.20;;;;;;;27.16;37.55;101933.56;5012865;28;20050;-64
2023/09/25 08:41:50;;;;;;;2.72;1.33;;;;;;;27.42;37.55;101931.91;5012885;28;20061;-64
2023/09/25 08:44:16;;;;;;;3.65;1.33;;;;;;;27.59;37.25;101938.66;5011378;28;20073;-63
2023/09/25 08:46:43;;;;;;;3.47;1.35;;;;;;;27.74;37.23;101936.53;5011634;28;20038;-67
2023/09/25 08:49:08;;;;;;;1.50;1.10;;;;;;;27.90;37.21;101930.56;5012791;28;20065;-66
2023/09/25 08:51:38;;;;;;;2.55;1.40;;;;;;;28.01;37.08;101935.38;5012734;28;20497;-66
2023/09/25 08:54:04;;;;;;;5.68;1.48;;;;;;;28.21;37.26;101940.88;5011460;28;20433;-66
2023/09/25 08:56:31;;;;;;;4.95;1.50;;;;;;;28.40;36.27;101933.56;5012926;28;20042;-67
2023/09/25 08:59:05;;;;;;;2.22;1.13;;;;;;;28.59;36.51;101938.13;5012721;28;20032;-66
2023/09/25 09:01:31;;;;;;;3.50;1.33;;;;;;;28.78;36.58;101928.94;5012579;28;20041;-67
2023/09/25 09:03:57;;;;;;;3.92;1.52;;;;;;;29.06;36.42;101932.16;5012687;28;20034;-65
2023/09/25 09:06:22;;;;;;;2.85;1.75;;;;;;;29.29;35.83;101942.59;5012412;28;20034;-66
2023/09/25 09:08:49;;;;;;;4.90;1.63;;;;;;;29.43;36.38;101939.47;5012595;28;20042;-67
2023/09/25 09:11:15;;;;;;;2.08;1.65;;;;;;;29.60;35.83;101941.66;5012528;28;20113;-68
2023/09/25 09:13:44;;;;;;;4.60;1.60;;;;;;;29.68;35.96;101935.84;5012803;28;20137;-64
2023/09/25 09:16:14;;;;;;;164.38;30.25;;;;;;;29.93;34.96;101931.97;5012961;28;20092;-60
2023/09/25 09:18:40;;;;;;;13.50;3.35;;;;;;;30.11;35.14;101930.31;5013020;28;20567;-60
2023/09/25 09:21:08;;;;;;;5.22;1.55;;;;;;;30.33;35.14;101935.13;5016343;28;20042;-61
2023/09/25 09:23:40;;;;;;;333.85;47.25;;;;;;;30.61;34.44;101925.41;5016117;28;20514;-62
2023/09/25 09:26:07;;;;;;;760.35;138.77;;;;;;;30.97;34.25;101926.16;5016046;28;20123;-59
2023/09/25 09:28:32;;;;;;;1999.90;596.55;;;;;;;31.53;33.68;101925.66;5014735;28;20038;-61
2023/09/25 09:31:02;;;;;;;69.85;23.88;;;;;;;32.62;33.07;101921.97;5015869;28;20042;-60
2023/09/25 09:33:31;;;;;;;16.48;4.38;;;;;;;34.39;30.62;101913.66;5015884;28;20049;-65
2023/09/25 09:35:56;;;;;;;6.25;1.95;;;;;;;34.24;30.41;101899.56;5015351;28;20088;-62
2023/09/25 09:38:22;;;;;;;4.35;1.60;;;;;;;34.02;30.28;101895.91;5016132;28;20045;-62
2023/09/25 09:40:48;;;;;;;3.67;1.25;;;;;;;33.92;31.22;101891.09;5015907;28;20041;-61
2023/09/25 09:43:15;;;;;;;2.53;1.00;;;;;;;34.02;30.63;101896.75;5015760;28;20413;-61
2023/09/25 09:45:42;;;;;;;1.77;0.93;;;;;;;33.94;30.40;101892.50;5015838;28;20034;-62
2023/09/25 09:48:09;;;;;;;1.70;0.98;;;;;;;34.08;30.69;101887.41;5014342;28;20046;-62
2023/09/25 09:50:34;;;;;;;2.53;1.15;;;;;;;34.40;29.61;101888.34;5014593;28;20049;-62
2023/09/25 09:52:59;;;;;;;3.75;1.35;;;;;;;34.56;29.35;101889.38;5014543;28;20033;-61
2023/09/25 09:55:28;;;;;;;1.67;0.75;;;;;;;34.80;29.31;101895.47;5015223;28;20045;-62
2023/09/25 09:57:54;;;;;;;1.08;0.90;;;;;;;35.07;29.30;101883.19;5014246;28;20041;-62
2023/09/25 10:00:20;;;;;;;2.20;1.15;;;;;;;35.33;29.48;101886.19;5015506;28;20034;-61
2023/09/25 10:02:47;;;;;;;2.25;1.08;;;;;;;35.63;28.66;101880.81;5015337;28;20038;-62
2023/09/25 10:05:13;;;;;;;1.10;1.00;;;;;;;35.74;28.65;101876.97;5015298;28;20037;-61
2023/09/25 10:08:09;;;;;;;976.88;189.23;;;;;;;35.64;28.99;101890.88;5014224;28;20033;-62
2023/09/25 10:10:41;;;;;;;777.45;142.20;;;;;;;35.68;28.45;101883.63;5015273;28;20505;-61
2023/09/25 10:13:11;;;;;;;8.48;2.95;;;;;;;35.95;28.83;101887.16;5014077;28;20045;-61
2023/09/25 10:15:38;;;;;;;4.45;1.23;;;;;;;36.13;28.55;101886.69;5015429;28;20048;-61
2023/09/25 10:18:05;;;;;;;3.33;1.33;;;;;;;36.28;28.21;101885.06;5013968;28;20044;-61
2023/09/25 10:20:32;;;;;;;1.73;0.73;;;;;;;36.30;28.30;101880.03;5015404;28;20038;-61
2023/09/25 10:22:59;;;;;;;1.48;0.95;;;;;;;36.48;28.31;101893.50;5015129;28;20073;-63
2023/09/25 10:25:25;;;;;;;2.67;1.02;;;;;;;36.64;28.06;101878.47;5014954;28;20041;-61
2023/09/25 10:27:52;;;;;;;2.45;1.05;;;;;;;36.81;27.63;101890.22;5015164;28;20022;-62
2023/09/25 10:30:18;;;;;;;0.70;0.70;;;;;;;37.01;27.41;101893.06;5013036;28;20030;-61
2023/09/25 10:32:51;;;;;;;2.58;0.70;;;;;;;37.20;26.44;101888.56;5015308;28;20030;-61
2023/09/25 10:35:36;;;;;;;2.95;0.90;;;;;;;37.44;26.60;101890.81;5013673;28;20060;-61
2023/09/25 10:38:11;;;;;;;0.65;0.63;;;;;;;37.53;26.56;101889.09;5014611;28;20076;-63
2023/09/25 10:40:37;;;;;;;1.75;0.77;;;;;;;37.66;26.77;101882.94;5015015;28;20056;-61
2023/09/25 10:43:03;;;;;;;2.25;1.00;;;;;;;37.64;26.36;101885.16;5007159;28;20599;-61
2023/09/25 10:45:29;;;;;;;1.55;1.05;;;;;;;37.78;25.91;101897.44;5019182;28;20041;-61
2023/09/25 10:47:55;;;;;;;3.13;1.58;;;;;;;37.88;25.99;101887.09;5014765;28;20180;-61
2023/09/25 10:50:21;;;;;;;2.13;0.80;;;;;;;37.96;25.85;101885.66;5014590;28;20084;-61
2023/09/25 10:52:46;;;;;;;1.13;0.98;;;;;;;37.81;26.10;101892.09;5014427;28;20436;-61
2023/09/25 10:55:12;;;;;;;0.90;0.68;;;;;;;37.94;25.43;101901.06;5014239;28;20038;-61
2023/09/25 10:57:37;;;;;;;2.17;1.05;;;;;;;37.96;25.49;101894.06;5014516;28;20038;-63
2023/09/25 11:00:09;;;;;;;2.30;1.40;;;;;;;37.87;25.33;101890.13;5014693;28;20037;-61
2023/09/25 11:02:34;;;;;;;;;;;;;;;37.86;26.31;101897.69;5014760;28;20037;-62
2023/09/25 11:05:02;;;;;;;2.47;1.00;;;;;;;37.86;25.59;101906.06;4996706;28;19913;-61
2023/09/25 11:07:27;;;;;;;2.22;1.17;;;;;;;37.78;25.80;101903.03;5014276;28;20041;-61
2023/09/25 11:09:53;;;;;;;1.70;1.00;;;;;;;37.68;25.20;101903.91;5014774;28;20026;-62
2023/09/25 11:12:18;;;;;;;1.77;1.20;;;;;;;37.71;24.79;101897.75;5014716;28;20107;-65
2023/09/25 11:14:44;;;;;;;3.63;0.80;;;;;;;37.70;25.36;101889.63;4982936;28;20037;-63
2023/09/25 11:17:09;;;;;;;3.08;0.80;;;;;;;37.84;24.66;101899.09;5017790;28;20497;-60
2023/09/25 11:19:34;;;;;;;1.92;0.82;;;;;;;37.74;24.12;101890.75;5013786;28;20049;-63
2023/09/25 11:22:01;;;;;;;1.60;1.05;;;;;;;37.70;24.07;101884.03;5016289;28;20535;-61
2023/09/25 11:24:28;;;;;;;2.35;0.88;;;;;;;37.78;25.07;101887.06;5015875;28;20045;-61
2023/09/25 11:26:54;;;;;;;5.40;0.90;;;;;;;37.96;24.86;101877.25;5015030;28;20068;-61
2023/09/25 11:29:19;;;;;;;3.58;1.00;;;;;;;38.16;24.47;101874.38;5013819;28;20046;-61
2023/09/25 11:31:44;;;;;;;3.15;0.75;;;;;;;38.34;24.31;101868.13;5014390;28;20033;-60
2023/09/25 11:34:10;;;;;;;2.38;1.00;;;;;;;38.38;23.89;101866.44;5014914;28;20088;-62
2023/09/25 11:36:43;;;;;;;2.35;1.38;;;;;;;38.56;23.60;101866.88;5013165;28;20061;-62
2023/09/25 11:39:16;;;;;;;5.32;1.20;;;;;;;38.63;24.32;101864.56;5014867;28;20040;-60
2023/09/25 11:41:45;;;;;;;1.58;0.50;;;;;;;38.64;24.01;101869.06;5017193;28;20113;-61